Time;durP1;ratioP1;P1;durP2;ratioP2;P2;SDS_P1;SDS_P2;PMS_P1;PMS_P2;Temp;Humidity;BMP_temperature;BMP_pressure;BME280_temperature;BME280_humidity;BME280_pressure;Samples;Min_cycle;Max_cycle;Signal;HPM_P1;HPM_P2
2021/04/17 00:02:15;;;;;;;1.20;1.10;;;25.30;48.40;;;;;;5133762;28;20444;-86
2021/04/17 00:04:42;;;;;;;1.20;1.10;;;25.20;48.30;;;;;;5134051;28;20778;-87
2021/04/17 00:07:11;;;;;;;1.20;1.10;;;25.20;48.40;;;;;;5134917;27;20445;-87
2021/04/17 00:09:38;;;;;;;1.00;0.80;;;25.20;48.50;;;;;;5137683;27;20440;-87
2021/04/17 00:12:08;;;;;;;1.30;1.20;;;25.20;48.40;;;;;;5137298;27;20481;-87
2021/04/17 00:14:37;;;;;;;1.40;1.30;;;25.20;48.50;;;;;;5137385;27;20467;-87
2021/04/17 00:17:05;;;;;;;1.93;1.30;;;25.20;48.50;;;;;;5137691;27;20451;-87
2021/04/17 00:19:31;;;;;;;1.40;1.30;;;25.20;48.50;;;;;;5137351;27;20531;-87
2021/04/17 00:21:58;;;;;;;2.23;1.13;;;25.20;48.50;;;;;;5137499;27;20513;-87
2021/04/17 00:24:24;;;;;;;1.30;1.20;;;25.20;49.10;;;;;;5137206;27;20436;-87
2021/04/17 00:26:51;;;;;;;1.50;1.40;;;25.20;48.50;;;;;;5137278;27;20772;-87
2021/04/17 00:29:18;;;;;;;1.30;1.20;;;25.20;48.50;;;;;;5137149;27;20542;-88
2021/04/17 00:31:44;;;;;;;1.00;0.83;;;25.00;48.40;;;;;;5136923;27;20485;-88
2021/04/17 00:34:10;;;;;;;1.53;1.43;;;25.20;48.50;;;;;;5136926;27;20438;-87
2021/04/17 00:36:37;;;;;;;1.30;1.10;;;25.20;48.60;;;;;;5136990;27;20532;-87
2021/04/17 00:39:05;;;;;;;1.13;1.03;;;25.10;48.50;;;;;;5137060;27;20471;-89
2021/04/17 00:41:31;;;;;;;1.23;1.13;;;25.10;48.50;;;;;;5136727;27;20440;-88
2021/04/17 00:43:57;;;;;;;1.20;1.03;;;25.10;48.50;;;;;;5136781;27;20548;-90
2021/04/17 00:46:25;;;;;;;1.77;1.13;;;25.10;48.60;;;;;;5136552;27;20438;-90
2021/04/17 00:48:51;;;;;;;1.33;1.13;;;25.10;48.60;;;;;;5136624;27;20789;-89
2021/04/17 00:51:18;;;;;;;1.40;1.30;;;25.10;48.60;;;;;;5136484;27;20481;-88
2021/04/17 00:53:45;;;;;;;1.20;1.00;;;25.10;48.60;;;;;;5136495;27;20452;-89
2021/04/17 00:56:12;;;;;;;1.00;0.90;;;25.10;48.60;;;;;;5136860;27;20445;-88
2021/04/17 00:58:39;;;;;;;1.40;1.30;;;25.10;48.60;;;;;;5136673;27;20448;-89
2021/04/17 01:01:07;;;;;;;1.20;1.00;;;25.10;48.70;;;;;;5136751;27;20452;-89
2021/04/17 01:03:42;;;;;;;1.40;0.93;;;25.10;48.70;;;;;;5136537;27;20943;-89
2021/04/17 01:06:14;;;;;;;2.13;1.30;;;25.10;48.70;;;;;;5136840;27;20433;-88
2021/04/17 01:08:46;;;;;;;1.20;1.10;;;25.00;48.80;;;;;;5136672;27;20441;-89
2021/04/17 01:11:18;;;;;;;1.17;1.07;;;25.00;48.80;;;;;;5136608;27;20801;-89
2021/04/17 01:13:45;;;;;;;1.10;0.97;;;25.00;48.80;;;;;;5136229;27;20468;-89
2021/04/17 01:16:12;;;;;;;1.13;1.03;;;25.00;48.80;;;;;;5136282;27;20456;-89
2021/04/17 01:18:40;;;;;;;1.10;1.00;;;25.00;48.80;;;;;;5136483;27;20481;-88
2021/04/17 01:21:07;;;;;;;1.00;0.90;;;25.20;48.90;;;;;;5136427;27;20440;-89
2021/04/17 01:23:36;;;;;;;1.30;1.20;;;25.20;48.80;;;;;;5136117;27;20440;-90
2021/04/17 01:26:07;;;;;;;1.60;1.40;;;25.00;48.80;;;;;;5135927;27;20527;-89
2021/04/17 01:28:36;;;;;;;1.17;1.03;;;25.00;48.70;;;;;;5135831;27;20436;-88
2021/04/17 01:31:04;;;;;;;1.27;1.17;;;25.00;48.70;;;;;;5135813;27;20483;-88
2021/04/17 01:33:33;;;;;;;1.10;0.90;;;25.00;48.70;;;;;;5135820;27;20950;-89
2021/04/17 01:36:01;;;;;;;1.20;1.10;;;25.00;48.70;;;;;;5135988;27;20452;-89
2021/04/17 01:38:31;;;;;;;1.40;1.30;;;25.00;49.30;;;;;;5136015;27;20442;-89
2021/04/17 01:44:22;;;;;;;1.10;1.00;;;25.00;48.70;;;;;;5135965;27;20432;-89
2021/04/17 01:46:50;;;;;;;1.10;1.00;;;25.00;48.80;;;;;;5135930;27;20899;-88
2021/04/17 01:49:18;;;;;;;1.10;1.00;;;25.00;48.70;;;;;;5135921;27;20442;-89
2021/04/17 01:51:46;;;;;;;1.00;0.90;;;25.10;48.80;;;;;;5117115;27;20487;-89
2021/04/17 01:54:18;;;;;;;1.20;1.10;;;25.00;48.70;;;;;;5135728;27;20438;-89
2021/04/17 01:56:46;;;;;;;1.30;1.20;;;25.00;48.80;;;;;;5135534;27;20446;-88
2021/04/17 01:59:14;;;;;;;1.10;1.00;;;25.00;48.80;;;;;;5135225;27;20536;-89
2021/04/17 02:01:42;;;;;;;1.10;1.00;;;25.00;48.80;;;;;;5135217;27;20494;-89
2021/04/17 02:04:09;;;;;;;1.20;1.10;;;24.90;48.70;;;;;;5135402;27;20436;-89
2021/04/17 02:06:35;;;;;;;1.10;1.00;;;25.00;48.80;;;;;;5135360;27;20440;-89
2021/04/17 02:09:03;;;;;;;1.20;1.10;;;24.90;48.70;;;;;;5135409;27;20442;-89
2021/04/17 02:11:30;;;;;;;1.20;1.10;;;24.90;48.70;;;;;;5134999;27;21067;-89
2021/04/17 02:13:56;;;;;;;1.20;1.10;;;24.90;48.70;;;;;;5134970;27;20518;-88
2021/04/17 02:16:27;;;;;;;1.10;0.83;;;25.10;48.80;;;;;;5135347;27;20448;-88
2021/04/17 02:18:58;;;;;;;1.37;1.07;;;25.00;48.80;;;;;;5135321;27;20441;-89
2021/04/17 02:21:31;;;;;;;1.20;1.10;;;24.90;48.70;;;;;;5135019;27;20478;-88
2021/04/17 02:23:59;;;;;;;1.30;1.13;;;24.90;48.70;;;;;;5134832;27;20490;-88
2021/04/17 02:26:26;;;;;;;1.03;0.93;;;24.90;48.80;;;;;;5134832;27;20995;-88
2021/04/17 02:28:52;;;;;;;1.33;0.93;;;24.90;48.80;;;;;;5134969;27;20449;-88
2021/04/17 02:31:18;;;;;;;1.20;1.10;;;25.10;48.80;;;;;;5134398;27;20542;-88
2021/04/17 02:33:45;;;;;;;1.17;1.03;;;24.90;48.70;;;;;;5134828;27;20447;-88
2021/04/17 02:36:12;;;;;;;2.00;1.10;;;25.00;48.80;;;;;;5134998;27;20781;-88
2021/04/17 02:38:38;;;;;;;1.30;1.20;;;24.90;48.80;;;;;;5134750;27;20939;-88
2021/04/17 02:41:05;;;;;;;1.10;1.00;;;24.90;48.80;;;;;;5134856;27;20558;-89
2021/04/17 02:43:31;;;;;;;1.20;1.03;;;24.90;48.70;;;;;;5134759;27;20982;-88
2021/04/17 02:45:58;;;;;;;1.00;0.90;;;24.90;48.80;;;;;;5134872;27;20443;-89
2021/04/17 02:48:24;;;;;;;1.20;1.10;;;25.00;48.90;;;;;;5135345;27;20440;-89
2021/04/17 02:50:50;;;;;;;1.30;1.13;;;24.90;48.90;;;;;;5134502;27;20481;-89
2021/04/17 02:53:18;;;;;;;1.20;1.10;;;24.90;48.90;;;;;;5134839;27;20442;-89
2021/04/17 02:55:44;;;;;;;2.03;0.90;;;25.00;49.00;;;;;;5134393;27;20445;-88
2021/04/17 02:58:10;;;;;;;1.20;1.10;;;24.90;48.90;;;;;;5134221;27;20438;-88
2021/04/17 03:00:36;;;;;;;1.10;1.00;;;24.90;48.90;;;;;;5133874;27;20473;-88
2021/04/17 03:03:03;;;;;;;1.13;1.03;;;24.90;48.90;;;;;;5134160;28;20437;-89
2021/04/17 03:05:29;;;;;;;1.00;0.80;;;24.90;49.00;;;;;;5134316;28;20441;-88
2021/04/17 03:07:55;;;;;;;1.10;1.00;;;24.90;49.00;;;;;;5134288;28;20950;-88
2021/04/17 03:10:22;;;;;;;1.10;0.90;;;24.90;49.00;;;;;;5134386;28;20479;-89
2021/04/17 03:12:49;;;;;;;1.10;1.00;;;24.90;48.90;;;;;;5134324;28;20433;-89
2021/04/17 03:15:15;;;;;;;1.20;1.00;;;24.90;49.00;;;;;;5134420;28;20438;-89
2021/04/17 03:17:42;;;;;;;1.10;1.00;;;24.90;49.10;;;;;;5134534;28;20438;-88
2021/04/17 03:20:10;;;;;;;1.10;1.00;;;24.90;49.00;;;;;;5134380;28;20453;-88
2021/04/17 03:22:37;;;;;;;1.10;0.90;;;24.90;49.10;;;;;;5134318;28;20441;-88
2021/04/17 03:25:07;;;;;;;1.00;0.90;;;24.90;49.10;;;;;;5134257;28;20846;-89
2021/04/17 03:27:34;;;;;;;1.17;1.00;;;24.90;49.10;;;;;;5134380;28;20445;-88
2021/04/17 03:30:01;;;;;;;1.20;1.10;;;24.90;49.10;;;;;;5134039;28;20474;-89
2021/04/17 03:32:29;;;;;;;1.57;1.13;;;24.80;48.90;;;;;;5134432;28;20593;-89
2021/04/17 03:34:55;;;;;;;1.00;0.90;;;25.10;49.10;;;;;;5134073;28;20438;-88
2021/04/17 03:37:22;;;;;;;1.00;0.80;;;24.80;48.80;;;;;;5133700;28;20445;-88
2021/04/17 03:39:48;;;;;;;1.07;0.90;;;24.80;48.90;;;;;;5133950;28;20463;-87
2021/04/17 03:42:14;;;;;;;1.10;1.00;;;24.80;49.60;;;;;;5135498;27;20445;-88
2021/04/17 03:44:41;;;;;;;1.00;0.90;;;24.80;49.30;;;;;;5138036;27;20461;-89
2021/04/17 03:47:08;;;;;;;1.00;0.87;;;24.80;49.00;;;;;;5138280;27;20441;-89
2021/04/17 03:49:34;;;;;;;1.10;0.97;;;24.80;48.90;;;;;;5137763;27;20922;-88
2021/04/17 03:52:01;;;;;;;1.30;1.13;;;24.80;49.00;;;;;;5137769;27;20561;-88
2021/04/17 03:54:28;;;;;;;1.10;1.00;;;24.80;48.80;;;;;;5138195;27;20524;-88
2021/04/17 03:56:55;;;;;;;1.10;0.90;;;25.00;49.10;;;;;;5138144;27;20996;-88
2021/04/17 03:59:21;;;;;;;1.07;0.97;;;24.80;48.90;;;;;;5137693;27;20531;-89
2021/04/17 04:01:51;;;;;;;1.13;1.00;;;24.80;48.90;;;;;;5137638;27;20441;-89
2021/04/17 04:04:17;;;;;;;1.10;1.00;;;25.00;49.10;;;;;;5138672;27;20438;-88
2021/04/17 04:06:44;;;;;;;1.00;0.80;;;25.00;49.10;;;;;;5137632;27;20457;-88
2021/04/17 04:09:10;;;;;;;1.13;1.03;;;24.80;49.10;;;;;;5137910;27;20516;-89
2021/04/17 04:11:36;;;;;;;1.40;0.90;;;24.80;49.20;;;;;;5137450;27;20484;-87
2021/04/17 04:14:03;;;;;;;1.10;1.00;;;24.80;49.20;;;;;;5137686;27;20476;-88
2021/04/17 04:16:29;;;;;;;1.10;1.00;;;24.80;49.00;;;;;;5137371;27;20466;-88
2021/04/17 04:18:57;;;;;;;1.20;1.10;;;24.80;49.00;;;;;;5137411;27;20493;-89
2021/04/17 04:21:23;;;;;;;1.10;0.90;;;25.00;49.10;;;;;;5137172;27;20837;-89
2021/04/17 04:23:49;;;;;;;1.00;0.83;;;24.80;48.90;;;;;;5137211;27;20452;-89
2021/04/17 04:26:15;;;;;;;1.67;0.90;;;24.90;49.00;;;;;;5137497;27;20437;-89
2021/04/17 04:28:42;;;;;;;0.97;0.80;;;24.80;49.10;;;;;;5137326;27;20441;-88
2021/04/17 04:31:08;;;;;;;1.10;0.90;;;24.80;49.20;;;;;;5137163;27;20484;-89
2021/04/17 04:33:34;;;;;;;1.00;0.83;;;24.90;49.10;;;;;;5137204;27;20442;-88
2021/04/17 04:36:01;;;;;;;1.10;0.90;;;24.90;49.20;;;;;;5136986;27;20944;-88
2021/04/17 04:38:27;;;;;;;1.00;0.80;;;24.80;49.10;;;;;;5137294;27;20440;-88
2021/04/17 04:40:54;;;;;;;3.83;1.10;;;24.80;49.00;;;;;;5137101;27;20434;-88
2021/04/17 04:43:20;;;;;;;1.07;0.90;;;24.80;48.90;;;;;;5136954;27;20835;-88
2021/04/17 04:45:47;;;;;;;1.00;0.80;;;24.80;49.20;;;;;;5137162;27;20444;-88
2021/04/17 04:48:13;;;;;;;1.20;1.10;;;24.80;49.30;;;;;;5137419;27;20981;-88
2021/04/17 04:50:43;;;;;;;1.03;0.93;;;24.70;49.30;;;;;;5136748;27;20473;-89
2021/04/17 04:53:10;;;;;;;1.13;1.03;;;24.70;49.20;;;;;;5136632;27;20444;-88
2021/04/17 04:55:36;;;;;;;1.10;1.00;;;24.90;49.40;;;;;;5136921;27;20464;-88
2021/04/17 04:58:02;;;;;;;1.00;0.80;;;24.80;49.20;;;;;;5136910;27;20438;-88
2021/04/17 05:00:29;;;;;;;1.60;1.00;;;24.70;49.20;;;;;;5136548;27;20476;-88
2021/04/17 05:02:55;;;;;;;1.00;0.83;;;24.70;49.20;;;;;;5136774;27;20444;-88
2021/04/17 05:05:21;;;;;;;1.10;1.00;;;24.70;49.10;;;;;;5136525;27;20481;-88
2021/04/17 05:07:48;;;;;;;1.10;1.00;;;24.90;49.30;;;;;;5136726;27;20938;-88
2021/04/17 05:10:15;;;;;;;1.17;0.90;;;24.70;49.00;;;;;;5136499;27;20436;-88
2021/04/17 05:12:41;;;;;;;1.10;0.90;;;24.70;49.10;;;;;;5136072;27;20481;-89
2021/04/17 05:15:09;;;;;;;1.00;0.90;;;24.90;49.50;;;;;;5136549;27;20433;-89
2021/04/17 05:17:35;;;;;;;1.20;1.00;;;24.70;49.30;;;;;;5136305;27;20437;-89
2021/04/17 05:20:01;;;;;;;1.00;0.80;;;24.70;50.00;;;;;;5136447;27;20444;-89
2021/04/17 05:22:27;;;;;;;1.30;1.20;;;24.70;50.00;;;;;;5137135;27;20453;-90
2021/04/17 05:24:54;;;;;;;1.03;0.90;;;24.70;49.70;;;;;;5136228;27;20452;-89
2021/04/17 05:27:21;;;;;;;0.90;0.80;;;24.70;49.50;;;;;;5136408;27;20822;-89
2021/04/17 05:29:47;;;;;;;1.00;0.80;;;24.70;49.60;;;;;;5136078;27;20437;-89
2021/04/17 05:32:14;;;;;;;1.10;1.00;;;24.70;49.50;;;;;;5135611;27;20486;-89
2021/04/17 05:34:40;;;;;;;1.40;1.00;;;24.70;49.60;;;;;;5135939;27;20502;-89
2021/04/17 05:37:06;;;;;;;1.10;0.90;;;24.70;49.50;;;;;;5135632;27;20441;-89
2021/04/17 05:39:33;;;;;;;1.27;1.17;;;24.70;49.50;;;;;;5135995;27;20456;-89
2021/04/17 05:41:59;;;;;;;1.23;0.97;;;24.70;49.60;;;;;;5135855;27;20452;-88
2021/04/17 05:44:26;;;;;;;1.00;0.90;;;24.90;49.80;;;;;;5135377;27;20525;-88
2021/04/17 05:46:53;;;;;;;1.00;0.80;;;24.70;49.70;;;;;;5135503;27;20429;-88
2021/04/17 05:49:19;;;;;;;1.00;0.80;;;24.70;49.60;;;;;;5136183;27;20438;-89
2021/04/17 05:51:45;;;;;;;1.00;0.90;;;24.70;49.70;;;;;;5135739;27;20485;-89
2021/04/17 05:54:13;;;;;;;1.00;0.83;;;24.70;49.70;;;;;;5135565;27;20932;-89
2021/04/17 05:56:39;;;;;;;1.00;0.90;;;24.70;49.80;;;;;;5135584;27;20948;-89
2021/04/17 05:59:06;;;;;;;1.30;0.80;;;24.70;49.80;;;;;;5135592;27;20819;-88
2021/04/17 06:01:33;;;;;;;1.10;0.97;;;24.70;49.90;;;;;;5135186;27;20936;-89
2021/04/17 06:04:00;;;;;;;1.00;0.90;;;24.70;49.90;;;;;;5135191;27;20509;-88
2021/04/17 06:06:26;;;;;;;1.03;0.87;;;24.70;50.00;;;;;;5134720;27;20442;-88
2021/04/17 06:08:52;;;;;;;1.00;0.80;;;24.70;50.00;;;;;;5135390;27;20437;-88
2021/04/17 06:11:20;;;;;;;1.03;0.90;;;24.70;49.90;;;;;;5135804;27;20495;-90
2021/04/17 06:13:48;;;;;;;1.20;1.10;;;24.70;50.00;;;;;;5135178;27;20527;-88
2021/04/17 06:16:15;;;;;;;1.10;1.00;;;24.70;50.00;;;;;;5135812;27;20446;-88
2021/04/17 06:18:42;;;;;;;1.10;0.80;;;24.80;50.00;;;;;;5135140;27;20443;-88
2021/04/17 06:21:08;;;;;;;1.10;1.00;;;24.70;50.00;;;;;;5135006;27;20967;-88
2021/04/17 06:23:35;;;;;;;1.10;0.97;;;24.70;50.00;;;;;;5135159;27;20498;-89
2021/04/17 06:26:02;;;;;;;1.03;0.93;;;24.70;50.00;;;;;;5134989;27;20436;-88
2021/04/17 06:28:29;;;;;;;1.20;1.00;;;24.70;50.00;;;;;;5135190;27;20434;-88
2021/04/17 06:30:56;;;;;;;1.13;0.90;;;24.70;50.00;;;;;;5134706;27;20503;-88
2021/04/17 06:33:24;;;;;;;1.13;0.97;;;24.70;50.00;;;;;;5134893;27;20444;-88
2021/04/17 06:35:52;;;;;;;1.10;1.00;;;24.70;50.00;;;;;;5134918;27;20441;-88
2021/04/17 06:38:18;;;;;;;1.10;0.90;;;24.70;50.00;;;;;;5135043;27;20437;-88
2021/04/17 06:40:45;;;;;;;1.57;1.00;;;24.70;50.00;;;;;;5134876;27;20940;-88
2021/04/17 06:43:12;;;;;;;1.10;0.97;;;24.70;50.00;;;;;;5134783;27;20461;-88
2021/04/17 06:45:39;;;;;;;1.20;1.07;;;24.70;50.00;;;;;;5134654;27;20458;-89
2021/04/17 06:48:07;;;;;;;1.20;1.00;;;24.70;50.00;;;;;;5140008;27;20476;-82
2021/04/17 06:50:34;;;;;;;1.47;1.30;;;24.70;50.20;;;;;;5155178;27;20451;-85
2021/04/17 06:53:03;;;;;;;1.97;1.87;;;24.70;48.80;;;;;;5155037;27;20441;-83
2021/04/17 06:55:29;;;;;;;1.20;1.00;;;24.70;48.60;;;;;;5155188;27;20444;-85
2021/04/17 06:57:56;;;;;;;1.40;1.20;;;24.70;48.40;;;;;;5155348;27;20780;-85
2021/04/17 07:00:23;;;;;;;1.10;1.00;;;24.70;48.50;;;;;;5154900;27;20472;-84
2021/04/17 07:02:50;;;;;;;1.10;1.00;;;24.70;48.50;;;;;;5154973;27;20435;-88
2021/04/17 07:05:16;;;;;;;1.17;1.03;;;24.70;48.60;;;;;;5145966;27;20448;-88
2021/04/17 07:07:43;;;;;;;1.00;0.90;;;24.70;49.40;;;;;;5142619;27;20489;-89
2021/04/17 07:10:12;;;;;;;2.30;1.20;;;24.70;49.60;;;;;;5134351;28;20441;-86
2021/04/17 07:12:38;;;;;;;1.30;1.20;;;24.80;49.50;;;;;;5132688;28;20488;-87
2021/04/17 07:15:07;;;;;;;1.20;1.00;;;24.80;49.20;;;;;;5134306;28;20434;-87
2021/04/17 07:17:34;;;;;;;1.37;1.20;;;24.80;49.60;;;;;;5137646;27;20441;-87
2021/04/17 07:20:03;;;;;;;1.27;1.10;;;24.80;49.50;;;;;;5138198;27;20495;-87
2021/04/17 07:22:31;;;;;;;1.30;1.00;;;24.90;49.60;;;;;;5138355;27;20441;-86
2021/04/17 07:25:15;;;;;;;1.47;1.10;;;24.90;49.50;;;;;;5138081;27;20501;-87
2021/04/17 07:27:44;;;;;;;1.23;1.13;;;25.00;49.50;;;;;;5138182;27;20437;-86
2021/04/17 07:30:28;;;;;;;2.43;1.23;;;25.20;49.60;;;;;;5140861;27;20441;-87
2021/04/17 07:33:14;;;;;;;1.17;1.07;;;25.00;49.60;;;;;;5138440;27;20613;-87
2021/04/17 07:35:42;;;;;;;1.17;1.00;;;25.10;49.70;;;;;;5138386;27;20943;-87
2021/04/17 07:38:11;;;;;;;1.90;1.10;;;25.10;49.80;;;;;;5147323;27;20424;-87
2021/04/17 07:40:38;;;;;;;1.30;0.97;;;25.10;49.80;;;;;;5158777;27;20440;-85
2021/04/17 07:43:05;;;;;;;1.00;0.90;;;25.10;49.90;;;;;;5158661;27;20969;-88
2021/04/17 07:45:35;;;;;;;3.90;3.10;;;25.20;50.00;;;;;;5158918;27;20876;-87
2021/04/17 07:48:19;;;;;;;4.30;3.90;;;25.20;47.50;;;;;;5158998;27;20998;-90
2021/04/17 07:50:46;;;;;;;5.53;3.60;;;25.00;45.80;;;;;;5158373;27;20440;-86
2021/04/17 07:53:28;;;;;;;5.30;3.00;;;24.80;45.30;;;;;;5159225;27;20531;-85
2021/04/17 07:55:56;;;;;;;5.63;3.83;;;24.70;45.80;;;;;;5158745;27;20496;-87
2021/04/17 07:58:23;;;;;;;6.63;2.83;;;24.50;45.10;;;;;;5158656;27;20933;-85
2021/04/17 08:00:50;;;;;;;5.57;2.90;;;24.40;45.50;;;;;;5158122;27;20474;-86
2021/04/17 08:03:19;;;;;;;7.40;2.20;;;24.40;46.20;;;;;;5158772;27;20524;-85
2021/04/17 08:05:45;;;;;;;1.60;1.37;;;24.50;47.20;;;;;;5158447;27;20447;-85
2021/04/17 08:08:12;;;;;;;4.93;1.83;;;24.60;47.90;;;;;;5158244;27;20420;-86
2021/04/17 08:10:39;;;;;;;4.93;1.80;;;24.70;48.30;;;;;;5158364;27;20468;-86
2021/04/17 08:13:08;;;;;;;4.10;1.87;;;24.70;49.20;;;;;;5158285;27;20455;-85
2021/04/17 08:15:36;;;;;;;1.80;1.40;;;24.80;48.80;;;;;;5158001;27;20440;-90
2021/04/17 08:18:04;;;;;;;2.07;1.57;;;24.90;48.70;;;;;;5145947;27;20528;-89
2021/04/17 08:20:31;;;;;;;1.47;1.20;;;24.90;48.60;;;;;;5146115;27;20426;-89
2021/04/17 08:22:58;;;;;;;2.07;1.47;;;24.90;48.60;;;;;;5146373;27;21026;-90
2021/04/17 08:25:26;;;;;;;2.47;1.60;;;25.00;48.80;;;;;;5139852;27;20423;-85
2021/04/17 08:27:53;;;;;;;1.73;1.43;;;25.00;48.90;;;;;;5137284;27;20444;-85
2021/04/17 08:30:22;;;;;;;1.80;1.40;;;25.10;49.00;;;;;;5137282;27;20441;-85
2021/04/17 08:32:48;;;;;;;2.33;1.47;;;25.20;49.30;;;;;;5139635;27;20476;-86
2021/04/17 08:35:16;;;;;;;6.73;1.50;;;25.20;49.40;;;;;;5146942;27;20433;-86
2021/04/17 08:38:03;;;;;;;1.40;1.30;;;25.30;49.50;;;;;;5157985;27;20441;-86
2021/04/17 08:40:52;;;;;;;1.63;1.53;;;25.30;49.60;;;;;;5157627;27;20440;-87
2021/04/17 08:43:31;;;;;;;2.17;1.27;;;25.40;49.80;;;;;;5157392;27;20552;-85
2021/04/17 08:46:07;;;;;;;2.80;1.30;;;25.40;49.90;;;;;;5155713;27;20855;-87
2021/04/17 08:48:52;;;;;;;2.50;1.80;;;25.50;49.90;;;;;;5157119;27;20441;-85
2021/04/17 08:51:42;;;;;;;1.83;1.30;;;25.60;50.10;;;;;;5156996;27;20559;-86
2021/04/17 08:54:20;;;;;;;2.60;1.47;;;25.60;50.00;;;;;;5131886;27;20440;-86
2021/04/17 08:56:52;;;;;;;1.33;1.20;;;25.60;50.10;;;;;;5157223;27;20924;-86
2021/04/17 08:59:20;;;;;;;1.20;1.10;;;25.70;50.20;;;;;;5156901;27;20824;-86
2021/04/17 09:01:51;;;;;;;4.97;1.63;;;25.80;50.30;;;;;;5156997;27;20500;-86
2021/04/17 09:04:18;;;;;;;1.30;1.20;;;25.90;50.20;;;;;;5156977;27;20451;-85
2021/04/17 09:06:46;;;;;;;1.93;1.00;;;26.00;50.10;;;;;;5156891;27;20514;-86
2021/04/17 09:09:32;;;;;;;1.70;1.40;;;26.20;50.10;;;;;;5156906;27;20494;-86
2021/04/17 09:12:28;;;;;;;1.40;1.27;;;26.30;50.00;;;;;;5156854;27;20481;-86
2021/04/17 09:15:05;;;;;;;2.47;1.60;;;26.30;49.90;;;;;;5157041;27;20908;-84
2021/04/17 09:17:49;;;;;;;3.33;1.50;;;26.30;48.90;;;;;;5156647;27;20448;-85
2021/04/17 09:20:39;;;;;;;2.60;1.90;;;26.20;46.50;;;;;;5157029;27;20529;-87
2021/04/17 09:23:06;;;;;;;1.70;1.60;;;26.10;46.70;;;;;;5157033;27;20501;-86
2021/04/17 09:25:38;;;;;;;4.10;1.87;;;26.00;46.00;;;;;;5156981;27;20956;-88
2021/04/17 09:28:05;;;;;;;3.40;1.83;;;25.90;45.50;;;;;;5156776;27;20950;-86
2021/04/17 09:30:31;;;;;;;3.53;1.73;;;25.80;45.50;;;;;;5157078;27;20446;-85
2021/04/17 09:32:59;;;;;;;6.93;1.60;;;25.80;47.30;;;;;;5156632;27;21018;-85
2021/04/17 09:35:27;;;;;;;1.70;1.37;;;25.80;47.70;;;;;;5156616;27;20432;-88
2021/04/17 09:38:03;;;;;;;5.63;1.40;;;25.90;47.90;;;;;;5156845;27;20463;-90
2021/04/17 09:40:32;;;;;;;4.23;1.90;;;26.00;48.00;;;;;;5155473;27;20429;-87
2021/04/17 09:42:59;;;;;;;2.00;1.27;;;25.90;48.20;;;;;;5156497;27;20653;-88
2021/04/17 09:45:31;;;;;;;2.67;1.37;;;26.00;48.70;;;;;;5156687;27;20814;-84
2021/04/17 09:47:59;;;;;;;3.90;1.40;;;26.00;48.50;;;;;;5156467;27;20850;-86
2021/04/17 09:50:28;;;;;;;2.20;1.43;;;26.10;48.70;;;;;;5156584;27;20447;-87
2021/04/17 09:52:54;;;;;;;3.87;1.77;;;26.20;48.70;;;;;;5156576;27;20572;-92
2021/04/17 09:55:21;;;;;;;3.20;1.77;;;26.30;48.80;;;;;;5153788;27;20466;-86
2021/04/17 09:57:49;;;;;;;1.67;1.03;;;26.20;48.30;;;;;;5156146;27;20462;-86
2021/04/17 10:00:24;;;;;;;4.23;1.40;;;26.20;48.20;;;;;;5155757;27;20556;-85
2021/04/17 10:02:50;;;;;;;3.10;1.30;;;26.10;48.30;;;;;;5156223;27;20438;-84
2021/04/17 10:05:32;;;;;;;1.70;1.13;;;26.10;48.40;;;;;;5156080;27;20491;-87
2021/04/17 10:07:59;;;;;;;2.97;1.50;;;26.10;48.60;;;;;;5155937;27;20444;-83
2021/04/17 10:10:34;;;;;;;2.20;1.37;;;26.00;48.90;;;;;;5156146;27;20438;-85
2021/04/17 10:13:00;;;;;;;2.37;1.00;;;26.10;49.20;;;;;;5155646;27;20499;-85
2021/04/17 10:15:28;;;;;;;1.77;1.30;;;26.10;48.90;;;;;;5155565;27;20447;-83
2021/04/17 10:17:56;;;;;;;3.93;1.70;;;26.10;48.90;;;;;;5154657;27;20442;-83
2021/04/17 10:20:25;;;;;;;2.33;1.77;;;26.10;48.70;;;;;;5144914;27;20438;-84
2021/04/17 10:22:52;;;;;;;4.73;1.30;;;26.00;48.70;;;;;;5146308;27;20470;-84
2021/04/17 10:25:37;;;;;;;6.83;1.70;;;26.00;48.70;;;;;;5147991;27;20490;-83
2021/04/17 10:28:17;;;;;;;2.20;1.10;;;26.00;48.70;;;;;;5134940;27;20503;-86
2021/04/17 10:30:46;;;;;;;3.70;1.60;;;25.90;48.70;;;;;;5135017;27;20438;-91
2021/04/17 10:33:14;;;;;;;2.57;1.80;;;25.90;48.70;;;;;;5135229;27;20491;-86
2021/04/17 10:35:47;;;;;;;4.47;1.90;;;25.80;48.00;;;;;;5135073;27;20434;-89
2021/04/17 10:38:25;;;;;;;3.50;1.77;;;26.00;48.40;;;;;;5134898;27;20439;-85
2021/04/17 10:40:52;;;;;;;2.40;1.87;;;25.80;48.20;;;;;;5134595;27;20514;-88
2021/04/17 10:43:20;;;;;;;6.80;2.03;;;25.80;48.00;;;;;;5134737;27;20996;-88
2021/04/17 10:45:48;;;;;;;6.50;2.00;;;25.90;48.30;;;;;;5134996;27;20435;-85
2021/04/17 10:48:18;;;;;;;1.63;1.50;;;25.80;48.00;;;;;;5143041;27;20430;-85
2021/04/17 10:50:54;;;;;;;2.33;1.50;;;25.80;48.20;;;;;;5154650;27;20436;-85
2021/04/17 10:53:24;;;;;;;5.57;1.63;;;26.00;48.10;;;;;;5155496;27;20799;-85
2021/04/17 10:55:52;;;;;;;3.03;1.80;;;26.30;48.20;;;;;;5147417;27;20453;-84
2021/04/17 10:58:24;;;;;;;3.53;1.40;;;26.20;48.30;;;;;;5150413;27;20951;-84
2021/04/17 11:00:55;;;;;;;4.20;2.00;;;26.20;48.30;;;;;;5151401;27;20472;-85
2021/04/17 11:03:24;;;;;;;4.80;1.97;;;26.20;47.80;;;;;;5124253;27;20443;-85
2021/04/17 11:05:52;;;;;;;3.77;1.40;;;26.30;48.00;;;;;;5119322;28;20530;-85
2021/04/17 11:08:23;;;;;;;5.10;1.90;;;26.40;48.00;;;;;;5125395;28;20683;-85
2021/04/17 11:10:49;;;;;;;4.17;1.10;;;26.50;48.10;;;;;;5130532;28;20431;-85
2021/04/17 11:13:29;;;;;;;3.53;1.37;;;26.50;48.10;;;;;;5119168;28;20573;-85
2021/04/17 11:15:55;;;;;;;1.77;1.20;;;26.50;48.10;;;;;;5123163;28;20501;-85
2021/04/17 11:18:22;;;;;;;2.50;1.53;;;26.30;47.90;;;;;;5123939;28;20429;-85
2021/04/17 11:20:56;;;;;;;6.00;1.80;;;26.60;48.00;;;;;;5124691;28;20572;-85
2021/04/17 11:23:40;;;;;;;2.77;1.10;;;26.70;48.00;;;;;;5119514;28;20439;-85
2021/04/17 11:26:07;;;;;;;5.47;1.30;;;26.80;48.00;;;;;;5124915;28;20432;-85
2021/04/17 11:28:34;;;;;;;1.67;1.30;;;26.80;48.00;;;;;;5131300;28;20786;-85
2021/04/17 11:31:01;;;;;;;1.30;1.03;;;26.80;48.00;;;;;;5127593;28;20434;-85
2021/04/17 11:33:28;;;;;;;3.00;1.23;;;26.80;48.10;;;;;;5122239;28;20514;-85
2021/04/17 11:35:55;;;;;;;2.53;1.20;;;26.80;48.10;;;;;;5124829;28;20441;-85
2021/04/17 11:38:22;;;;;;;2.30;1.73;;;26.90;48.20;;;;;;5119235;28;20798;-86
2021/04/17 11:40:49;;;;;;;2.57;1.37;;;26.90;48.20;;;;;;5125800;28;20858;-85
2021/04/17 11:43:16;;;;;;;2.97;1.10;;;26.90;48.20;;;;;;5122111;28;20525;-86
2021/04/17 11:45:43;;;;;;;2.40;1.57;;;26.90;48.20;;;;;;5123848;28;20518;-86
2021/04/17 11:48:11;;;;;;;3.00;1.60;;;26.90;48.20;;;;;;5125662;28;20443;-86
2021/04/17 11:50:38;;;;;;;2.80;1.40;;;27.00;48.20;;;;;;5122491;28;20438;-86
2021/04/17 11:53:05;;;;;;;2.70;1.77;;;27.00;48.20;;;;;;5124430;28;20493;-87
2021/04/17 11:55:32;;;;;;;2.27;1.30;;;26.80;46.30;;;;;;5122992;28;20451;-86
2021/04/17 11:57:59;;;;;;;1.47;1.10;;;26.70;46.40;;;;;;5128989;28;20523;-88
2021/04/17 12:00:25;;;;;;;1.50;1.00;;;26.70;46.60;;;;;;5117299;28;20465;-86
2021/04/17 12:02:51;;;;;;;1.90;1.53;;;26.60;47.30;;;;;;5114077;28;20455;-86
2021/04/17 12:05:18;;;;;;;2.90;1.00;;;26.60;47.50;;;;;;5117000;28;20446;-86
2021/04/17 12:07:45;;;;;;;2.10;1.10;;;26.60;47.30;;;;;;5117186;28;20966;-86
2021/04/17 12:10:16;;;;;;;3.20;1.40;;;26.60;46.50;;;;;;5118705;28;20821;-86
2021/04/17 12:12:43;;;;;;;1.37;1.00;;;26.60;47.80;;;;;;5117128;28;20484;-87
2021/04/17 12:15:14;;;;;;;1.57;1.10;;;26.60;47.20;;;;;;5117582;28;20439;-94
2021/04/17 12:17:40;;;;;;;3.10;0.90;;;26.60;47.20;;;;;;5118014;28;20500;-94
2021/04/17 12:20:09;;;;;;;1.60;1.10;;;26.50;46.70;;;;;;5117623;27;20444;-86
2021/04/17 12:22:36;;;;;;;3.37;1.17;;;26.50;47.20;;;;;;5129149;27;20438;-86
2021/04/17 12:25:03;;;;;;;1.43;1.30;;;26.60;47.30;;;;;;5129046;27;20777;-86
2021/04/17 12:27:31;;;;;;;1.60;0.97;;;26.60;47.30;;;;;;5124863;27;20441;-86
2021/04/17 12:29:59;;;;;;;5.37;1.40;;;26.50;47.50;;;;;;5126392;27;20443;-86
2021/04/17 12:32:27;;;;;;;2.80;1.20;;;26.60;47.60;;;;;;5126460;27;20478;-86
2021/04/17 12:34:54;;;;;;;2.63;1.27;;;26.60;47.70;;;;;;5126423;27;20510;-87
2021/04/17 12:37:21;;;;;;;1.60;1.50;;;26.70;47.60;;;;;;5128787;27;20946;-87
2021/04/17 12:39:47;;;;;;;7.80;2.77;;;26.80;47.70;;;;;;5125678;27;20434;-86
2021/04/17 12:42:14;;;;;;;13.97;6.40;;;26.70;47.80;;;;;;5132403;27;20466;-87
2021/04/17 12:44:41;;;;;;;11.20;5.80;;;26.70;48.20;;;;;;5128760;27;20432;-87
2021/04/17 12:47:08;;;;;;;15.63;6.63;;;26.80;48.30;;;;;;5126062;27;20819;-86
2021/04/17 12:49:35;;;;;;;17.83;6.60;;;26.80;48.40;;;;;;5129242;27;20471;-86
2021/04/17 12:52:02;;;;;;;14.83;6.33;;;26.80;48.40;;;;;;5121679;27;20510;-85
2021/04/17 12:54:28;;;;;;;13.30;6.90;;;26.80;48.40;;;;;;5125141;27;20441;-86
2021/04/17 12:56:56;;;;;;;14.53;7.07;;;26.80;48.40;;;;;;5123235;27;20440;-86